sensor_id;sensor_type;location;lat;lon;timestamp;P1;durP1;ratioP1;P2;durP2;ratioP2
61200;SDS011;47065;52.898;6.992;2022-08-11T00:02:15;4.75;;;4.15;;
61200;SDS011;47065;52.898;6.992;2022-08-11T00:04:47;8.07;;;4.40;;
61200;SDS011;47065;52.898;6.992;2022-08-11T00:07:14;4.72;;;4.18;;
61200;SDS011;47065;52.898;6.992;2022-08-11T00:09:40;5.18;;;4.60;;
61200;SDS011;47065;52.898;6.992;2022-08-11T00:12:13;5.03;;;4.55;;
61200;SDS011;47065;52.898;6.992;2022-08-11T00:14:41;5.82;;;4.50;;
61200;SDS011;47065;52.898;6.992;2022-08-11T00:17:08;6.28;;;5.03;;
61200;SDS011;47065;52.898;6.992;2022-08-11T00:19:45;7.88;;;5.30;;
61200;SDS011;47065;52.898;6.992;2022-08-11T00:22:12;5.68;;;5.03;;
61200;SDS011;47065;52.898;6.992;2022-08-11T00:24:45;7.63;;;5.25;;
61200;SDS011;47065;52.898;6.992;2022-08-11T00:27:11;5.22;;;4.75;;
61200;SDS011;47065;52.898;6.992;2022-08-11T00:29:37;5.97;;;5.35;;
61200;SDS011;47065;52.898;6.992;2022-08-11T00:32:03;8.77;;;5.93;;
61200;SDS011;47065;52.898;6.992;2022-08-11T00:34:32;6.13;;;5.53;;
61200;SDS011;47065;52.898;6.992;2022-08-11T00:39:27;10.15;;;6.07;;
61200;SDS011;47065;52.898;6.992;2022-08-11T00:41:58;10.95;;;6.18;;
61200;SDS011;47065;52.898;6.992;2022-08-11T00:47:23;11.02;;;5.93;;
61200;SDS011;47065;52.898;6.992;2022-08-11T01:01:25;6.30;;;5.38;;
61200;SDS011;47065;52.898;6.992;2022-08-11T01:10:12;6.43;;;5.15;;
61200;SDS011;47065;52.898;6.992;2022-08-11T01:18:54;9.18;;;6.65;;
61200;SDS011;47065;52.898;6.992;2022-08-11T01:22:09;7.93;;;6.25;;
61200;SDS011;47065;52.898;6.992;2022-08-11T01:53:03;7.50;;;6.63;;
61200;SDS011;47065;52.898;6.992;2022-08-11T01:55:47;7.55;;;6.85;;
61200;SDS011;47065;52.898;6.992;2022-08-11T01:58:20;8.57;;;7.15;;
61200;SDS011;47065;52.898;6.992;2022-08-11T02:01:10;9.38;;;7.40;;
61200;SDS011;47065;52.898;6.992;2022-08-11T02:03:53;7.28;;;6.05;;
61200;SDS011;47065;52.898;6.992;2022-08-11T02:12:27;8.35;;;6.72;;
61200;SDS011;47065;52.898;6.992;2022-08-11T02:15:19;6.85;;;6.15;;
61200;SDS011;47065;52.898;6.992;2022-08-11T02:20:44;6.32;;;4.40;;
61200;SDS011;47065;52.898;6.992;2022-08-11T02:23:57;5.40;;;3.88;;
61200;SDS011;47065;52.898;6.992;2022-08-11T02:26:37;4.85;;;4.20;;
61200;SDS011;47065;52.898;6.992;2022-08-11T02:29:20;10.45;;;5.50;;
61200;SDS011;47065;52.898;6.992;2022-08-11T02:40:48;9.65;;;8.23;;
61200;SDS011;47065;52.898;6.992;2022-08-11T02:49:27;13.30;;;9.75;;
61200;SDS011;47065;52.898;6.992;2022-08-11T02:52:14;7.90;;;7.10;;
61200;SDS011;47065;52.898;6.992;2022-08-11T03:00:07;5.45;;;4.95;;
61200;SDS011;47065;52.898;6.992;2022-08-11T03:10:24;6.30;;;5.57;;
61200;SDS011;47065;52.898;6.992;2022-08-11T03:13:14;8.93;;;7.03;;
61200;SDS011;47065;52.898;6.992;2022-08-11T03:16:09;9.40;;;7.53;;
61200;SDS011;47065;52.898;6.992;2022-08-11T03:25:02;3.70;;;3.40;;
61200;SDS011;47065;52.898;6.992;2022-08-11T03:27:57;4.20;;;3.45;;
61200;SDS011;47065;52.898;6.992;2022-08-11T03:30:47;6.22;;;5.10;;
61200;SDS011;47065;52.898;6.992;2022-08-11T03:33:46;6.88;;;4.32;;
61200;SDS011;47065;52.898;6.992;2022-08-11T03:41:34;9.93;;;6.68;;
61200;SDS011;47065;52.898;6.992;2022-08-11T03:47:27;5.68;;;4.70;;
61200;SDS011;47065;52.898;6.992;2022-08-11T03:55:53;6.72;;;5.32;;
61200;SDS011;47065;52.898;6.992;2022-08-11T03:58:59;4.68;;;4.20;;
61200;SDS011;47065;52.898;6.992;2022-08-11T04:30:27;16.95;;;6.13;;
61200;SDS011;47065;52.898;6.992;2022-08-11T04:39:30;10.25;;;6.82;;
61200;SDS011;47065;52.898;6.992;2022-08-11T04:51:42;7.05;;;4.65;;
61200;SDS011;47065;52.898;6.992;2022-08-11T05:07:18;10.75;;;9.60;;
61200;SDS011;47065;52.898;6.992;2022-08-11T05:13:00;10.82;;;9.73;;
61200;SDS011;47065;52.898;6.992;2022-08-11T05:15:51;11.38;;;10.15;;
61200;SDS011;47065;52.898;6.992;2022-08-11T05:18:45;13.63;;;10.35;;
61200;SDS011;47065;52.898;6.992;2022-08-11T05:21:33;13.30;;;11.70;;
61200;SDS011;47065;52.898;6.992;2022-08-11T05:24:20;13.50;;;11.05;;
61200;SDS011;47065;52.898;6.992;2022-08-11T05:27:08;17.85;;;13.30;;
61200;SDS011;47065;52.898;6.992;2022-08-11T05:30:00;27.38;;;16.38;;
61200;SDS011;47065;52.898;6.992;2022-08-11T05:33:01;17.45;;;14.57;;
61200;SDS011;47065;52.898;6.992;2022-08-11T05:35:54;17.20;;;14.38;;
61200;SDS011;47065;52.898;6.992;2022-08-11T05:38:24;22.48;;;16.10;;
61200;SDS011;47065;52.898;6.992;2022-08-11T05:41:11;20.75;;;16.25;;
61200;SDS011;47065;52.898;6.992;2022-08-11T05:43:59;21.10;;;16.58;;
61200;SDS011;47065;52.898;6.992;2022-08-11T05:46:45;24.83;;;18.95;;
61200;SDS011;47065;52.898;6.992;2022-08-11T05:49:31;25.10;;;17.15;;
61200;SDS011;47065;52.898;6.992;2022-08-11T05:52:20;28.63;;;19.13;;
61200;SDS011;47065;52.898;6.992;2022-08-11T05:55:06;22.02;;;16.08;;
61200;SDS011;47065;52.898;6.992;2022-08-11T05:58:10;26.70;;;18.42;;
61200;SDS011;47065;52.898;6.992;2022-08-11T06:00:44;23.08;;;18.92;;
61200;SDS011;47065;52.898;6.992;2022-08-11T06:03:11;21.98;;;17.00;;
61200;SDS011;47065;52.898;6.992;2022-08-11T06:05:49;21.80;;;17.45;;
61200;SDS011;47065;52.898;6.992;2022-08-11T06:08:15;24.23;;;17.23;;
61200;SDS011;47065;52.898;6.992;2022-08-11T06:10:43;26.58;;;18.52;;
61200;SDS011;47065;52.898;6.992;2022-08-11T06:13:09;19.30;;;16.48;;
61200;SDS011;47065;52.898;6.992;2022-08-11T06:15:44;26.48;;;16.45;;
61200;SDS011;47065;52.898;6.992;2022-08-11T06:18:11;20.05;;;15.82;;
61200;SDS011;47065;52.898;6.992;2022-08-11T06:23:17;17.40;;;14.02;;
61200;SDS011;47065;52.898;6.992;2022-08-11T06:25:44;16.27;;;14.10;;
61200;SDS011;47065;52.898;6.992;2022-08-11T06:28:11;19.48;;;14.90;;
61200;SDS011;47065;52.898;6.992;2022-08-11T06:36:13;16.30;;;13.02;;
61200;SDS011;47065;52.898;6.992;2022-08-11T06:41:58;16.90;;;11.80;;
61200;SDS011;47065;52.898;6.992;2022-08-11T06:44:31;15.90;;;11.63;;
61200;SDS011;47065;52.898;6.992;2022-08-11T06:47:05;17.67;;;11.50;;
61200;SDS011;47065;52.898;6.992;2022-08-11T06:49:34;15.02;;;12.75;;
61200;SDS011;47065;52.898;6.992;2022-08-11T06:52:27;15.85;;;11.70;;
61200;SDS011;47065;52.898;6.992;2022-08-11T06:54:55;13.07;;;9.48;;
61200;SDS011;47065;52.898;6.992;2022-08-11T06:57:36;12.45;;;9.65;;
61200;SDS011;47065;52.898;6.992;2022-08-11T07:00:23;10.57;;;8.85;;
61200;SDS011;47065;52.898;6.992;2022-08-11T07:05:38;12.02;;;9.38;;
61200;SDS011;47065;52.898;6.992;2022-08-11T07:14:00;8.35;;;7.43;;
61200;SDS011;47065;52.898;6.992;2022-08-11T07:16:47;9.98;;;7.57;;
61200;SDS011;47065;52.898;6.992;2022-08-11T07:19:24;9.23;;;7.97;;
61200;SDS011;47065;52.898;6.992;2022-08-11T07:22:11;13.10;;;7.80;;
61200;SDS011;47065;52.898;6.992;2022-08-11T07:24:58;8.93;;;7.28;;
61200;SDS011;47065;52.898;6.992;2022-08-11T07:27:47;11.05;;;6.10;;
61200;SDS011;47065;52.898;6.992;2022-08-11T07:30:38;8.00;;;7.20;;
61200;SDS011;47065;52.898;6.992;2022-08-11T07:33:05;8.77;;;6.53;;
61200;SDS011;47065;52.898;6.992;2022-08-11T07:35:33;10.85;;;6.55;;
61200;SDS011;47065;52.898;6.992;2022-08-11T07:38:08;10.15;;;5.88;;
61200;SDS011;47065;52.898;6.992;2022-08-11T07:40:41;9.57;;;6.40;;
61200;SDS011;47065;52.898;6.992;2022-08-11T07:43:10;6.70;;;5.00;;
61200;SDS011;47065;52.898;6.992;2022-08-11T07:45:41;5.78;;;5.18;;
61200;SDS011;47065;52.898;6.992;2022-08-11T07:48:27;8.43;;;5.40;;
61200;SDS011;47065;52.898;6.992;2022-08-11T07:51:15;9.10;;;5.05;;
61200;SDS011;47065;52.898;6.992;2022-08-11T07:54:04;5.65;;;4.40;;
61200;SDS011;47065;52.898;6.992;2022-08-11T07:56:34;5.38;;;4.25;;
61200;SDS011;47065;52.898;6.992;2022-08-11T07:59:01;8.27;;;4.90;;
61200;SDS011;47065;52.898;6.992;2022-08-11T08:01:46;9.32;;;5.28;;
61200;SDS011;47065;52.898;6.992;2022-08-11T08:04:32;5.70;;;4.32;;
61200;SDS011;47065;52.898;6.992;2022-08-11T08:07:19;9.63;;;5.38;;
61200;SDS011;47065;52.898;6.992;2022-08-11T08:10:07;8.50;;;3.88;;
61200;SDS011;47065;52.898;6.992;2022-08-11T08:12:53;6.97;;;4.20;;
61200;SDS011;47065;52.898;6.992;2022-08-11T08:15:38;10.65;;;4.82;;
61200;SDS011;47065;52.898;6.992;2022-08-11T08:18:24;6.45;;;3.55;;
61200;SDS011;47065;52.898;6.992;2022-08-11T08:20:50;5.35;;;4.60;;
61200;SDS011;47065;52.898;6.992;2022-08-11T08:23:19;6.22;;;3.70;;
61200;SDS011;47065;52.898;6.992;2022-08-11T08:25:57;6.18;;;3.30;;
61200;SDS011;47065;52.898;6.992;2022-08-11T08:28:25;6.93;;;3.95;;
61200;SDS011;47065;52.898;6.992;2022-08-11T08:30:52;5.43;;;3.35;;
61200;SDS011;47065;52.898;6.992;2022-08-11T08:35:57;4.10;;;2.30;;
61200;SDS011;47065;52.898;6.992;2022-08-11T08:38:48;5.15;;;2.63;;
61200;SDS011;47065;52.898;6.992;2022-08-11T08:41:19;4.85;;;2.55;;
61200;SDS011;47065;52.898;6.992;2022-08-11T08:43:50;3.38;;;1.92;;
61200;SDS011;47065;52.898;6.992;2022-08-11T08:46:19;5.28;;;2.13;;
61200;SDS011;47065;52.898;6.992;2022-08-11T08:48:49;2.05;;;1.65;;
61200;SDS011;47065;52.898;6.992;2022-08-11T08:51:16;4.00;;;1.40;;
61200;SDS011;47065;52.898;6.992;2022-08-11T08:54:08;2.67;;;1.50;;
61200;SDS011;47065;52.898;6.992;2022-08-11T08:56:39;1.67;;;1.25;;
61200;SDS011;47065;52.898;6.992;2022-08-11T08:59:07;2.40;;;0.95;;
61200;SDS011;47065;52.898;6.992;2022-08-11T09:01:45;2.42;;;1.20;;
61200;SDS011;47065;52.898;6.992;2022-08-11T09:04:17;2.28;;;1.30;;
61200;SDS011;47065;52.898;6.992;2022-08-11T09:06:44;4.65;;;1.30;;
61200;SDS011;47065;52.898;6.992;2022-08-11T09:09:12;4.75;;;1.05;;
61200;SDS011;47065;52.898;6.992;2022-08-11T09:11:39;7.03;;;1.35;;
61200;SDS011;47065;52.898;6.992;2022-08-11T09:14:21;3.30;;;0.80;;
61200;SDS011;47065;52.898;6.992;2022-08-11T09:16:49;2.80;;;1.08;;
61200;SDS011;47065;52.898;6.992;2022-08-11T09:19:17;0.80;;;0.80;;
61200;SDS011;47065;52.898;6.992;2022-08-11T09:21:45;1.23;;;0.95;;
61200;SDS011;47065;52.898;6.992;2022-08-11T09:24:37;1.13;;;0.80;;
61200;SDS011;47065;52.898;6.992;2022-08-11T09:27:23;2.30;;;1.23;;
61200;SDS011;47065;52.898;6.992;2022-08-11T09:29:50;3.40;;;1.00;;
61200;SDS011;47065;52.898;6.992;2022-08-11T09:32:20;0.73;;;0.70;;
61200;SDS011;47065;52.898;6.992;2022-08-11T09:34:46;1.65;;;1.00;;
61200;SDS011;47065;52.898;6.992;2022-08-11T09:37:15;0.95;;;0.90;;
61200;SDS011;47065;52.898;6.992;2022-08-11T09:40:00;3.40;;;0.90;;
61200;SDS011;47065;52.898;6.992;2022-08-11T09:42:46;1.85;;;0.90;;
61200;SDS011;47065;52.898;6.992;2022-08-11T09:45:32;0.77;;;0.77;;
61200;SDS011;47065;52.898;6.992;2022-08-11T09:47:59;2.60;;;1.10;;
61200;SDS011;47065;52.898;6.992;2022-08-11T09:50:30;1.33;;;0.80;;
61200;SDS011;47065;52.898;6.992;2022-08-11T09:52:57;3.17;;;1.20;;
61200;SDS011;47065;52.898;6.992;2022-08-11T09:55:23;1.48;;;1.35;;
61200;SDS011;47065;52.898;6.992;2022-08-11T09:57:50;1.13;;;0.90;;
61200;SDS011;47065;52.898;6.992;2022-08-11T10:00:35;3.35;;;0.80;;
61200;SDS011;47065;52.898;6.992;2022-08-11T10:03:03;2.22;;;0.85;;
61200;SDS011;47065;52.898;6.992;2022-08-11T10:05:33;2.17;;;0.65;;
61200;SDS011;47065;52.898;6.992;2022-08-11T10:08:20;0.55;;;0.55;;
61200;SDS011;47065;52.898;6.992;2022-08-11T10:10:50;1.70;;;0.95;;
61200;SDS011;47065;52.898;6.992;2022-08-11T10:13:17;3.55;;;0.85;;
61200;SDS011;47065;52.898;6.992;2022-08-11T10:15:50;4.38;;;1.63;;
61200;SDS011;47065;52.898;6.992;2022-08-11T10:18:28;2.15;;;0.82;;
61200;SDS011;47065;52.898;6.992;2022-08-11T10:24:06;1.60;;;0.90;;
61200;SDS011;47065;52.898;6.992;2022-08-11T10:26:52;2.60;;;0.93;;
61200;SDS011;47065;52.898;6.992;2022-08-11T10:32:25;4.97;;;0.85;;
61200;SDS011;47065;52.898;6.992;2022-08-11T10:35:13;2.13;;;0.70;;
61200;SDS011;47065;52.898;6.992;2022-08-11T10:37:41;2.75;;;0.88;;
61200;SDS011;47065;52.898;6.992;2022-08-11T10:40:09;0.98;;;0.88;;
61200;SDS011;47065;52.898;6.992;2022-08-11T10:42:42;4.60;;;1.02;;
61200;SDS011;47065;52.898;6.992;2022-08-11T10:45:30;1.23;;;0.90;;
61200;SDS011;47065;52.898;6.992;2022-08-11T10:48:16;1.40;;;1.00;;
61200;SDS011;47065;52.898;6.992;2022-08-11T10:50:46;1.50;;;1.00;;
61200;SDS011;47065;52.898;6.992;2022-08-11T10:53:33;1.95;;;1.30;;
61200;SDS011;47065;52.898;6.992;2022-08-11T10:56:19;1.83;;;0.82;;
61200;SDS011;47065;52.898;6.992;2022-08-11T10:59:05;3.92;;;0.93;;
61200;SDS011;47065;52.898;6.992;2022-08-11T11:01:38;4.88;;;0.98;;
61200;SDS011;47065;52.898;6.992;2022-08-11T11:04:07;2.20;;;0.90;;
61200;SDS011;47065;52.898;6.992;2022-08-11T11:09:24;1.60;;;0.80;;
61200;SDS011;47065;52.898;6.992;2022-08-11T11:11:57;2.63;;;0.88;;
61200;SDS011;47065;52.898;6.992;2022-08-11T11:14:52;1.45;;;0.90;;
61200;SDS011;47065;52.898;6.992;2022-08-11T11:17:42;4.30;;;1.10;;
61200;SDS011;47065;52.898;6.992;2022-08-11T11:22:52;1.85;;;1.08;;
61200;SDS011;47065;52.898;6.992;2022-08-11T11:28:13;1.00;;;0.85;;
61200;SDS011;47065;52.898;6.992;2022-08-11T11:30:46;1.33;;;0.90;;
61200;SDS011;47065;52.898;6.992;2022-08-11T11:33:21;2.58;;;1.15;;
61200;SDS011;47065;52.898;6.992;2022-08-11T11:38:33;1.85;;;1.00;;
61200;SDS011;47065;52.898;6.992;2022-08-11T11:40:59;1.80;;;1.00;;
61200;SDS011;47065;52.898;6.992;2022-08-11T11:44:04;2.75;;;1.15;;
61200;SDS011;47065;52.898;6.992;2022-08-11T11:46:30;4.55;;;1.30;;
61200;SDS011;47065;52.898;6.992;2022-08-11T11:48:56;4.20;;;1.00;;
61200;SDS011;47065;52.898;6.992;2022-08-11T11:51:24;3.38;;;1.10;;
61200;SDS011;47065;52.898;6.992;2022-08-11T11:53:52;2.75;;;1.00;;
61200;SDS011;47065;52.898;6.992;2022-08-11T11:56:19;1.83;;;1.08;;
61200;SDS011;47065;52.898;6.992;2022-08-11T11:58:48;1.20;;;1.00;;
61200;SDS011;47065;52.898;6.992;2022-08-11T12:01:32;2.40;;;0.82;;
61200;SDS011;47065;52.898;6.992;2022-08-11T12:03:59;6.57;;;1.17;;
61200;SDS011;47065;52.898;6.992;2022-08-11T12:06:27;5.07;;;0.90;;
61200;SDS011;47065;52.898;6.992;2022-08-11T12:08:54;1.27;;;0.95;;
61200;SDS011;47065;52.898;6.992;2022-08-11T12:11:22;2.53;;;0.85;;
61200;SDS011;47065;52.898;6.992;2022-08-11T12:14:09;1.55;;;0.85;;
61200;SDS011;47065;52.898;6.992;2022-08-11T12:16:36;0.77;;;0.77;;
61200;SDS011;47065;52.898;6.992;2022-08-11T12:19:09;2.75;;;1.00;;
61200;SDS011;47065;52.898;6.992;2022-08-11T12:21:38;5.45;;;0.90;;
61200;SDS011;47065;52.898;6.992;2022-08-11T12:24:25;0.93;;;0.90;;
61200;SDS011;47065;52.898;6.992;2022-08-11T12:27:11;6.35;;;1.75;;
61200;SDS011;47065;52.898;6.992;2022-08-11T12:29:48;1.48;;;1.00;;
61200;SDS011;47065;52.898;6.992;2022-08-11T12:32:26;1.02;;;0.93;;
61200;SDS011;47065;52.898;6.992;2022-08-11T12:34:54;1.13;;;0.90;;
61200;SDS011;47065;52.898;6.992;2022-08-11T12:37:29;1.33;;;0.95;;
61200;SDS011;47065;52.898;6.992;2022-08-11T12:40:23;2.40;;;1.10;;
61200;SDS011;47065;52.898;6.992;2022-08-11T12:43:13;1.70;;;0.82;;
61200;SDS011;47065;52.898;6.992;2022-08-11T12:46:00;4.55;;;1.20;;
61200;SDS011;47065;52.898;6.992;2022-08-11T12:48:31;2.30;;;1.10;;
61200;SDS011;47065;52.898;6.992;2022-08-11T12:51:18;4.85;;;1.10;;
61200;SDS011;47065;52.898;6.992;2022-08-11T12:54:16;1.10;;;0.90;;
61200;SDS011;47065;52.898;6.992;2022-08-11T12:56:49;2.17;;;1.75;;
61200;SDS011;47065;52.898;6.992;2022-08-11T12:59:46;2.00;;;0.98;;
61200;SDS011;47065;52.898;6.992;2022-08-11T13:02:31;1.17;;;1.05;;
61200;SDS011;47065;52.898;6.992;2022-08-11T13:05:17;2.15;;;1.33;;
61200;SDS011;47065;52.898;6.992;2022-08-11T13:07:45;1.60;;;1.00;;
61200;SDS011;47065;52.898;6.992;2022-08-11T13:10:12;3.45;;;1.45;;
61200;SDS011;47065;52.898;6.992;2022-08-11T13:13:02;1.08;;;1.05;;
61200;SDS011;47065;52.898;6.992;2022-08-11T13:15:29;2.58;;;1.13;;
61200;SDS011;47065;52.898;6.992;2022-08-11T13:17:55;2.58;;;1.00;;
61200;SDS011;47065;52.898;6.992;2022-08-11T13:20:23;2.45;;;1.05;;
61200;SDS011;47065;52.898;6.992;2022-08-11T13:22:53;5.63;;;1.02;;
61200;SDS011;47065;52.898;6.992;2022-08-11T13:25:22;1.05;;;0.82;;
61200;SDS011;47065;52.898;6.992;2022-08-11T13:27:52;2.70;;;0.98;;
61200;SDS011;47065;52.898;6.992;2022-08-11T13:30:21;3.15;;;0.85;;
61200;SDS011;47065;52.898;6.992;2022-08-11T13:33:08;4.93;;;1.10;;
61200;SDS011;47065;52.898;6.992;2022-08-11T13:35:35;2.10;;;0.80;;
61200;SDS011;47065;52.898;6.992;2022-08-11T13:38:01;4.95;;;0.90;;
61200;SDS011;47065;52.898;6.992;2022-08-11T13:40:28;3.15;;;1.10;;
61200;SDS011;47065;52.898;6.992;2022-08-11T13:42:55;1.60;;;1.13;;
61200;SDS011;47065;52.898;6.992;2022-08-11T13:45:23;1.10;;;1.02;;
61200;SDS011;47065;52.898;6.992;2022-08-11T13:47:50;5.55;;;1.20;;
61200;SDS011;47065;52.898;6.992;2022-08-11T13:50:19;5.10;;;1.15;;
61200;SDS011;47065;52.898;6.992;2022-08-11T13:52:46;3.45;;;0.77;;
61200;SDS011;47065;52.898;6.992;2022-08-11T13:55:13;2.03;;;0.90;;
61200;SDS011;47065;52.898;6.992;2022-08-11T13:57:51;1.13;;;0.75;;
61200;SDS011;47065;52.898;6.992;2022-08-11T14:00:18;2.47;;;0.90;;
61200;SDS011;47065;52.898;6.992;2022-08-11T14:02:46;2.00;;;0.98;;
61200;SDS011;47065;52.898;6.992;2022-08-11T14:05:15;3.58;;;0.90;;
61200;SDS011;47065;52.898;6.992;2022-08-11T14:08:06;3.42;;;0.90;;
61200;SDS011;47065;52.898;6.992;2022-08-11T14:10:33;3.25;;;0.70;;
61200;SDS011;47065;52.898;6.992;2022-08-11T14:13:09;1.35;;;0.70;;
61200;SDS011;47065;52.898;6.992;2022-08-11T14:15:59;1.38;;;0.82;;
61200;SDS011;47065;52.898;6.992;2022-08-11T14:18:29;1.40;;;0.70;;
61200;SDS011;47065;52.898;6.992;2022-08-11T14:20:57;1.50;;;0.93;;
61200;SDS011;47065;52.898;6.992;2022-08-11T14:23:47;0.70;;;0.70;;
61200;SDS011;47065;52.898;6.992;2022-08-11T14:26:23;1.10;;;1.00;;
61200;SDS011;47065;52.898;6.992;2022-08-11T14:28:54;2.25;;;0.80;;
61200;SDS011;47065;52.898;6.992;2022-08-11T14:31:22;2.20;;;0.90;;
61200;SDS011;47065;52.898;6.992;2022-08-11T14:33:50;0.60;;;0.60;;
61200;SDS011;47065;52.898;6.992;2022-08-11T14:36:23;1.23;;;0.68;;
61200;SDS011;47065;52.898;6.992;2022-08-11T14:38:51;2.10;;;0.98;;
61200;SDS011;47065;52.898;6.992;2022-08-11T14:41:18;5.97;;;0.85;;
61200;SDS011;47065;52.898;6.992;2022-08-11T14:44:04;3.75;;;1.35;;
61200;SDS011;47065;52.898;6.992;2022-08-11T14:46:49;1.35;;;0.80;;
61200;SDS011;47065;52.898;6.992;2022-08-11T14:49:32;3.22;;;0.80;;
61200;SDS011;47065;52.898;6.992;2022-08-11T14:52:05;2.33;;;0.90;;
61200;SDS011;47065;52.898;6.992;2022-08-11T14:54:33;2.10;;;0.95;;
61200;SDS011;47065;52.898;6.992;2022-08-11T14:57:19;0.73;;;0.73;;
61200;SDS011;47065;52.898;6.992;2022-08-11T14:59:46;4.82;;;1.08;;
61200;SDS011;47065;52.898;6.992;2022-08-11T15:02:14;3.60;;;1.05;;
61200;SDS011;47065;52.898;6.992;2022-08-11T15:05:02;4.68;;;0.90;;
61200;SDS011;47065;52.898;6.992;2022-08-11T15:07:30;0.80;;;0.80;;
61200;SDS011;47065;52.898;6.992;2022-08-11T15:10:00;0.60;;;0.60;;
61200;SDS011;47065;52.898;6.992;2022-08-11T15:12:32;0.95;;;0.90;;
61200;SDS011;47065;52.898;6.992;2022-08-11T15:15:01;1.67;;;0.70;;
61200;SDS011;47065;52.898;6.992;2022-08-11T15:17:47;3.72;;;1.10;;
61200;SDS011;47065;52.898;6.992;2022-08-11T15:20:16;4.00;;;1.33;;
61200;SDS011;47065;52.898;6.992;2022-08-11T15:23:01;3.22;;;0.98;;
61200;SDS011;47065;52.898;6.992;2022-08-11T15:25:52;1.10;;;0.88;;
61200;SDS011;47065;52.898;6.992;2022-08-11T15:28:21;3.08;;;0.85;;
61200;SDS011;47065;52.898;6.992;2022-08-11T15:31:07;1.80;;;0.80;;
61200;SDS011;47065;52.898;6.992;2022-08-11T15:33:53;0.90;;;0.60;;
61200;SDS011;47065;52.898;6.992;2022-08-11T15:36:41;3.05;;;0.95;;
61200;SDS011;47065;52.898;6.992;2022-08-11T15:39:30;5.72;;;1.98;;
61200;SDS011;47065;52.898;6.992;2022-08-11T15:42:01;2.67;;;0.98;;
61200;SDS011;47065;52.898;6.992;2022-08-11T15:44:52;3.83;;;1.10;;
61200;SDS011;47065;52.898;6.992;2022-08-11T15:47:56;3.33;;;1.00;;
61200;SDS011;47065;52.898;6.992;2022-08-11T15:50:27;2.83;;;1.08;;
61200;SDS011;47065;52.898;6.992;2022-08-11T15:53:01;1.08;;;0.88;;
61200;SDS011;47065;52.898;6.992;2022-08-11T15:55:29;2.60;;;1.00;;
61200;SDS011;47065;52.898;6.992;2022-08-11T15:57:58;1.52;;;1.00;;
61200;SDS011;47065;52.898;6.992;2022-08-11T16:00:47;2.17;;;1.00;;
61200;SDS011;47065;52.898;6.992;2022-08-11T16:03:34;3.03;;;0.90;;
61200;SDS011;47065;52.898;6.992;2022-08-11T16:06:25;1.13;;;0.98;;
61200;SDS011;47065;52.898;6.992;2022-08-11T16:08:52;1.60;;;1.10;;
61200;SDS011;47065;52.898;6.992;2022-08-11T16:11:20;5.30;;;1.15;;
61200;SDS011;47065;52.898;6.992;2022-08-11T16:13:47;3.72;;;1.27;;
61200;SDS011;47065;52.898;6.992;2022-08-11T16:16:33;2.58;;;1.10;;
61200;SDS011;47065;52.898;6.992;2022-08-11T16:19:00;3.33;;;0.93;;
61200;SDS011;47065;52.898;6.992;2022-08-11T16:21:33;2.20;;;1.00;;
61200;SDS011;47065;52.898;6.992;2022-08-11T16:24:00;2.53;;;1.00;;
61200;SDS011;47065;52.898;6.992;2022-08-11T16:26:30;2.83;;;1.20;;
61200;SDS011;47065;52.898;6.992;2022-08-11T16:28:59;2.33;;;0.98;;
61200;SDS011;47065;52.898;6.992;2022-08-11T16:31:25;3.15;;;1.33;;
61200;SDS011;47065;52.898;6.992;2022-08-11T16:33:53;1.33;;;0.77;;
61200;SDS011;47065;52.898;6.992;2022-08-11T16:36:22;1.85;;;1.10;;
61200;SDS011;47065;52.898;6.992;2022-08-11T16:39:08;1.70;;;0.88;;
61200;SDS011;47065;52.898;6.992;2022-08-11T16:41:36;2.97;;;1.45;;
61200;SDS011;47065;52.898;6.992;2022-08-11T16:44:23;2.22;;;1.30;;
61200;SDS011;47065;52.898;6.992;2022-08-11T16:47:11;3.13;;;1.10;;
61200;SDS011;47065;52.898;6.992;2022-08-11T16:49:44;2.75;;;0.98;;
61200;SDS011;47065;52.898;6.992;2022-08-11T16:52:12;1.27;;;0.97;;
61200;SDS011;47065;52.898;6.992;2022-08-11T16:54:39;5.65;;;1.33;;
61200;SDS011;47065;52.898;6.992;2022-08-11T16:57:11;2.72;;;1.17;;
61200;SDS011;47065;52.898;6.992;2022-08-11T17:00:06;2.85;;;1.38;;
61200;SDS011;47065;52.898;6.992;2022-08-11T17:02:46;1.98;;;1.10;;
61200;SDS011;47065;52.898;6.992;2022-08-11T17:05:34;4.18;;;1.38;;
61200;SDS011;47065;52.898;6.992;2022-08-11T17:08:25;2.88;;;1.20;;
61200;SDS011;47065;52.898;6.992;2022-08-11T17:11:17;3.58;;;1.25;;
61200;SDS011;47065;52.898;6.992;2022-08-11T17:14:12;4.50;;;1.17;;
61200;SDS011;47065;52.898;6.992;2022-08-11T17:16:41;2.53;;;1.30;;
61200;SDS011;47065;52.898;6.992;2022-08-11T17:19:20;5.13;;;1.20;;
61200;SDS011;47065;52.898;6.992;2022-08-11T17:21:49;2.83;;;1.27;;
61200;SDS011;47065;52.898;6.992;2022-08-11T17:24:39;3.88;;;1.63;;
61200;SDS011;47065;52.898;6.992;2022-08-11T17:29:36;1.77;;;1.40;;
61200;SDS011;47065;52.898;6.992;2022-08-11T17:32:05;4.82;;;1.40;;
61200;SDS011;47065;52.898;6.992;2022-08-11T17:34:51;4.63;;;1.30;;
61200;SDS011;47065;52.898;6.992;2022-08-11T17:37:39;1.45;;;1.35;;
61200;SDS011;47065;52.898;6.992;2022-08-11T17:40:07;4.30;;;1.40;;
61200;SDS011;47065;52.898;6.992;2022-08-11T17:42:35;3.08;;;1.40;;
61200;SDS011;47065;52.898;6.992;2022-08-11T17:45:21;4.65;;;1.40;;
61200;SDS011;47065;52.898;6.992;2022-08-11T17:48:06;4.60;;;1.50;;
61200;SDS011;47065;52.898;6.992;2022-08-11T17:53:21;1.88;;;1.20;;
61200;SDS011;47065;52.898;6.992;2022-08-11T17:56:06;3.92;;;1.60;;
61200;SDS011;47065;52.898;6.992;2022-08-11T17:58:58;2.15;;;1.13;;
61200;SDS011;47065;52.898;6.992;2022-08-11T18:01:44;5.68;;;1.48;;
61200;SDS011;47065;52.898;6.992;2022-08-11T18:04:13;1.55;;;1.23;;
61200;SDS011;47065;52.898;6.992;2022-08-11T18:06:40;5.05;;;1.30;;
61200;SDS011;47065;52.898;6.992;2022-08-11T18:09:08;5.57;;;1.50;;
61200;SDS011;47065;52.898;6.992;2022-08-11T18:11:56;1.58;;;1.20;;
61200;SDS011;47065;52.898;6.992;2022-08-11T18:14:43;5.38;;;1.52;;
61200;SDS011;47065;52.898;6.992;2022-08-11T18:17:30;3.10;;;1.33;;
61200;SDS011;47065;52.898;6.992;2022-08-11T18:20:15;1.20;;;1.10;;
61200;SDS011;47065;52.898;6.992;2022-08-11T18:23:02;4.70;;;1.45;;
61200;SDS011;47065;52.898;6.992;2022-08-11T18:25:49;4.35;;;1.48;;
61200;SDS011;47065;52.898;6.992;2022-08-11T18:28:44;3.60;;;1.95;;
61200;SDS011;47065;52.898;6.992;2022-08-11T18:31:32;2.75;;;1.38;;
61200;SDS011;47065;52.898;6.992;2022-08-11T18:34:19;2.42;;;1.35;;
61200;SDS011;47065;52.898;6.992;2022-08-11T18:37:10;5.05;;;1.55;;
61200;SDS011;47065;52.898;6.992;2022-08-11T18:40:10;1.27;;;1.17;;
61200;SDS011;47065;52.898;6.992;2022-08-11T18:42:59;2.65;;;1.40;;
61200;SDS011;47065;52.898;6.992;2022-08-11T18:45:47;1.65;;;1.55;;
61200;SDS011;47065;52.898;6.992;2022-08-11T18:48:36;4.00;;;1.75;;
61200;SDS011;47065;52.898;6.992;2022-08-11T18:51:23;2.70;;;1.20;;
61200;SDS011;47065;52.898;6.992;2022-08-11T18:54:09;9.23;;;2.15;;
61200;SDS011;47065;52.898;6.992;2022-08-11T18:56:57;2.92;;;2.08;;
61200;SDS011;47065;52.898;6.992;2022-08-11T18:59:44;2.88;;;1.65;;
61200;SDS011;47065;52.898;6.992;2022-08-11T19:02:31;5.40;;;1.70;;
61200;SDS011;47065;52.898;6.992;2022-08-11T19:05:17;3.13;;;1.50;;
61200;SDS011;47065;52.898;6.992;2022-08-11T19:08:02;3.15;;;1.60;;
61200;SDS011;47065;52.898;6.992;2022-08-11T19:10:47;3.05;;;1.40;;
61200;SDS011;47065;52.898;6.992;2022-08-11T19:13:33;4.60;;;1.60;;
61200;SDS011;47065;52.898;6.992;2022-08-11T19:16:20;6.93;;;1.88;;
61200;SDS011;47065;52.898;6.992;2022-08-11T19:19:07;6.43;;;2.03;;
61200;SDS011;47065;52.898;6.992;2022-08-11T19:21:53;3.63;;;1.80;;
61200;SDS011;47065;52.898;6.992;2022-08-11T19:24:38;3.75;;;1.30;;
61200;SDS011;47065;52.898;6.992;2022-08-11T19:27:25;1.65;;;1.20;;
61200;SDS011;47065;52.898;6.992;2022-08-11T19:30:10;4.45;;;2.13;;